createdAt,value
2022-10-22T00:02:05.878Z,100742.66
2022-10-22T00:04:34.585Z,100745.38
2022-10-22T00:07:02.147Z,100744.59
2022-10-22T00:09:28.615Z,100747.31
2022-10-22T00:11:55.184Z,100746.50
2022-10-22T00:14:21.643Z,100745.66
2022-10-22T00:16:48.099Z,100743.78
2022-10-22T00:19:15.424Z,100754.69
2022-10-22T00:21:42.055Z,100756.56
2022-10-22T00:24:08.615Z,100751.97
2022-10-22T00:26:35.161Z,100753.34
2022-10-22T00:29:01.611Z,100759.63
2022-10-22T00:31:28.256Z,100762.34
2022-10-22T00:33:54.719Z,100758.81
2022-10-22T00:36:21.190Z,100765.38
2022-10-22T00:38:47.665Z,100775.47
2022-10-22T00:41:14.628Z,100765.38
2022-10-22T00:43:56.007Z,100764.56
2022-10-22T00:46:22.470Z,100770.84
2022-10-22T00:48:49.931Z,100767.28
2022-10-22T00:51:16.719Z,100761.00
2022-10-22T00:53:49.044Z,100773.84
2022-10-22T00:56:15.745Z,100774.66
2022-10-22T00:58:47.381Z,100773.84
2022-10-22T01:01:18.537Z,100779.59
2022-10-22T01:03:45.141Z,100779.28
2022-10-22T01:06:19.218Z,100784.25
2022-10-22T01:09:04.357Z,100790.22
2022-10-22T01:11:55.684Z,100794.06
2022-10-22T01:14:59.894Z,100783.44
2022-10-22T01:17:50.768Z,100790.78
2022-10-22T01:20:22.956Z,100786.44
2022-10-22T01:35:17.697Z,100796.56
2022-10-22T01:37:52.061Z,100793.03
2022-10-22T01:40:19.999Z,100793.03
2022-10-22T01:43:00.859Z,100792.22
2022-10-22T01:45:30.411Z,100777.75
2022-10-22T01:48:08.781Z,100785.63
2022-10-22T01:54:10.589Z,100783.22
2022-10-22T01:56:45.983Z,100790.56
2022-10-22T01:59:38.852Z,100798.75
2022-10-22T02:02:11.502Z,100785.41
2022-10-22T02:05:09.495Z,100797.13
2022-10-22T02:07:45.836Z,100797.13
2022-10-22T02:10:14.039Z,100789.75
2022-10-22T02:12:43.475Z,100788.13
2022-10-22T02:15:12.365Z,100792.78
2022-10-22T02:17:39.830Z,100785.72
2022-10-22T02:20:12.676Z,100783.81
2022-10-22T02:22:40.383Z,100782.19
2022-10-22T02:25:09.251Z,100782.19
2022-10-22T02:27:51.819Z,100781.06
2022-10-22T02:30:22.366Z,100788.44
2022-10-22T02:33:01.860Z,100798.56
2022-10-22T02:35:29.717Z,100784.06
2022-10-22T02:37:58.194Z,100790.63
2022-10-22T02:40:25.072Z,100777.00
2022-10-22T02:42:52.008Z,100777.00
2022-10-22T02:45:19.457Z,100783.56
2022-10-22T02:47:46.374Z,100780.84
2022-10-22T02:50:13.556Z,100786.31
2022-10-22T02:52:40.384Z,100783.56
2022-10-22T02:55:07.940Z,100789.31
2022-10-22T02:57:34.449Z,100788.22
2022-10-22T03:00:01.073Z,100788.50
2022-10-22T03:02:27.582Z,100794.75
2022-10-22T03:04:54.034Z,100788.78
2022-10-22T03:07:20.583Z,100797.78
2022-10-22T03:09:47.045Z,100791.22
2022-10-22T03:12:13.828Z,100795.06
2022-10-22T03:14:40.310Z,100793.44
2022-10-22T03:17:06.770Z,100796.97
2022-10-22T03:19:33.262Z,100809.00
2022-10-22T03:22:02.860Z,100810.63
2022-10-22T03:24:34.322Z,100792.63
2022-10-22T03:27:00.787Z,100796.44
2022-10-22T03:29:27.838Z,100800.81
2022-10-22T03:31:54.896Z,100804.34
2022-10-22T03:34:21.594Z,100804.34
2022-10-22T03:36:49.674Z,100808.16
2022-10-22T03:39:19.304Z,100804.63
2022-10-22T03:41:46.742Z,100806.56
2022-10-22T03:44:13.685Z,100808.16
2022-10-22T03:46:40.164Z,100804.94
2022-10-22T03:49:06.622Z,100812.31
2022-10-22T03:51:33.332Z,100807.66
2022-10-22T03:53:59.920Z,100812.31
2022-10-22T03:56:26.470Z,100819.38
2022-10-22T03:58:56.365Z,100819.69
2022-10-22T04:01:23.431Z,100815.84
2022-10-22T04:03:49.928Z,100821.56
2022-10-22T04:06:16.454Z,100819.94
2022-10-22T04:08:44.387Z,100824.31
2022-10-22T04:11:12.194Z,100827.88
2022-10-22T04:13:39.394Z,100818.84
2022-10-22T04:16:15.000Z,100824.56
2022-10-22T04:18:42.948Z,100827.59
2022-10-22T04:21:11.072Z,100833.06
2022-10-22T04:23:38.367Z,100824.88
2022-10-22T04:26:07.614Z,100833.88
2022-10-22T04:28:35.464Z,100842.06
2022-10-22T04:31:10.983Z,100840.44
2022-10-22T04:33:37.935Z,100848.63
2022-10-22T04:36:16.292Z,100837.97
2022-10-22T04:38:44.228Z,100843.44
2022-10-22T04:41:19.719Z,100845.66
2022-10-22T04:43:47.418Z,100851.13
2022-10-22T04:46:15.870Z,100853.00
2022-10-22T04:48:43.498Z,100854.13
2022-10-22T04:51:13.610Z,100854.91
2022-10-22T04:53:43.430Z,100847.84
2022-10-22T04:56:21.929Z,100856.03
2022-10-22T04:58:50.556Z,100868.84
2022-10-22T05:01:23.474Z,100870.78
2022-10-22T05:03:51.853Z,100861.47
2022-10-22T05:06:20.886Z,100871.59
2022-10-22T05:08:48.356Z,100869.66
2022-10-22T05:11:18.776Z,100870.78
2022-10-22T05:13:45.855Z,100872.69
2022-10-22T05:16:13.546Z,100875.44
2022-10-22T05:18:42.183Z,100874.63
2022-10-22T05:21:11.015Z,100861.25
2022-10-22T05:23:37.556Z,100881.16
2022-10-22T05:26:06.152Z,100872.97
2022-10-22T05:28:34.012Z,100872.97
2022-10-22T05:31:01.433Z,100876.00
2022-10-22T05:33:29.600Z,100871.66
2022-10-22T05:35:56.768Z,100877.09
2022-10-22T05:38:23.336Z,100875.19
2022-10-22T05:41:03.293Z,100872.47
2022-10-22T05:43:30.587Z,100877.09
2022-10-22T05:46:03.015Z,100886.91
2022-10-22T05:48:29.742Z,100893.47
2022-10-22T05:50:56.444Z,100892.63
2022-10-22T05:53:22.891Z,100895.34
2022-10-22T05:55:49.479Z,100892.13
2022-10-22T05:58:15.946Z,100895.66
2022-10-22T06:00:42.471Z,100905.75
2022-10-22T06:03:08.910Z,100907.66
2022-10-22T06:05:36.747Z,100908.78
2022-10-22T06:08:04.331Z,100915.03
2022-10-22T06:10:31.385Z,100913.94
2022-10-22T06:12:57.940Z,100912.31
2022-10-22T06:15:24.502Z,100927.03
2022-10-22T06:17:50.973Z,100926.22
2022-10-22T06:20:17.603Z,100923.22
2022-10-22T06:22:44.301Z,100929.75
2022-10-22T06:25:11.010Z,100932.47
2022-10-22T06:27:37.449Z,100937.13
2022-10-22T06:30:04.362Z,100940.97
2022-10-22T06:32:30.867Z,100942.88
2022-10-22T06:34:57.392Z,100943.69
2022-10-22T06:37:23.935Z,100940.97
2022-10-22T06:39:50.399Z,100949.16
2022-10-22T06:42:16.862Z,100953.78
2022-10-22T06:44:43.362Z,100951.06
2022-10-22T06:47:09.818Z,100957.63
2022-10-22T06:49:36.520Z,100954.06
2022-10-22T06:52:03.012Z,100963.88
2022-10-22T06:54:29.474Z,100963.88
2022-10-22T06:56:55.920Z,100968.78
2022-10-22T06:59:22.402Z,100978.59
2022-10-22T07:01:49.101Z,100983.25
2022-10-22T07:04:15.758Z,100987.06
2022-10-22T07:06:42.560Z,100981.31
2022-10-22T07:09:09.127Z,100975.06
2022-10-22T07:11:44.079Z,101001.53
2022-10-22T07:14:11.111Z,101000.72
2022-10-22T07:16:37.921Z,101002.31
2022-10-22T07:19:05.421Z,101006.97
2022-10-22T07:21:32.524Z,101009.19
2022-10-22T07:23:59.709Z,101018.97
2022-10-22T07:26:30.531Z,101023.63
2022-10-22T07:28:57.299Z,101029.09
2022-10-22T07:31:23.807Z,101026.34
2022-10-22T07:33:50.500Z,101036.44
2022-10-22T07:36:17.933Z,101045.44
2022-10-22T07:38:49.624Z,101050.88
2022-10-22T07:41:17.595Z,101057.16
2022-10-22T07:43:44.873Z,101062.06
2022-10-22T07:46:11.479Z,101069.44
2022-10-22T07:48:39.045Z,101072.16
2022-10-22T07:51:05.772Z,101068.63
2022-10-22T07:53:32.954Z,101074.88
2022-10-22T07:55:59.516Z,101070.53
2022-10-22T07:58:26.239Z,101078.72
2022-10-22T08:00:56.556Z,101079.53
2022-10-22T08:03:23.087Z,101084.47
2022-10-22T08:05:50.104Z,101095.06
2022-10-22T08:08:16.778Z,101098.63
2022-10-22T08:10:44.263Z,101113.34
2022-10-22T08:13:11.371Z,101105.97
2022-10-22T08:15:38.449Z,101102.44
2022-10-22T08:18:05.202Z,101113.34
2022-10-22T08:20:32.095Z,101113.34
2022-10-22T08:22:59.404Z,101121.53
2022-10-22T08:25:25.999Z,101111.44
2022-10-22T08:27:52.468Z,101118.81
2022-10-22T08:30:19.090Z,101122.34
2022-10-22T08:32:45.821Z,101118.81
2022-10-22T08:35:14.159Z,101132.44
2022-10-22T08:37:43.563Z,101129.97
2022-10-22T08:40:21.408Z,101139.81
2022-10-22T08:43:06.827Z,101132.44
2022-10-22T08:45:41.503Z,101156.16
2022-10-22T08:48:41.376Z,101148.78
2022-10-22T08:51:12.775Z,101146.06
2022-10-22T08:54:06.923Z,101150.41
2022-10-22T08:56:36.581Z,101153.44
2022-10-22T08:59:11.887Z,101167.06
2022-10-22T09:01:43.068Z,101170.59
2022-10-22T09:04:25.759Z,101169.00
2022-10-22T09:06:55.257Z,101163.25
2022-10-22T09:09:22.088Z,101176.06
2022-10-22T09:11:51.800Z,101178.78
2022-10-22T09:14:22.028Z,101181.50
2022-10-22T09:16:57.315Z,101178.78
2022-10-22T09:19:50.350Z,101187.47
2022-10-22T09:22:46.449Z,101184.25
2022-10-22T09:25:26.068Z,101189.69
2022-10-22T09:27:54.452Z,101199.50
2022-10-22T09:30:24.323Z,101197.31
2022-10-22T09:33:16.043Z,101194.03
2022-10-22T09:35:47.163Z,101197.56
2022-10-22T09:38:15.475Z,101212.84
2022-10-22T09:40:45.437Z,101205.75
2022-10-22T09:43:13.883Z,101219.41
2022-10-22T09:45:41.970Z,101215.56
2022-10-22T09:48:14.490Z,101212.31
2022-10-22T09:50:49.674Z,101224.03
2022-10-22T09:53:27.076Z,101223.50
2022-10-22T09:55:59.601Z,101222.41
2022-10-22T09:58:26.781Z,101233.03
2022-10-22T10:00:56.452Z,101237.94
2022-10-22T10:03:28.952Z,101238.19
2022-10-22T10:06:01.536Z,101229.72
2022-10-22T10:08:31.782Z,101234.09
2022-10-22T10:11:16.665Z,101247.97
2022-10-22T10:13:54.102Z,101241.13
2022-10-22T10:16:52.940Z,101248.25
2022-10-22T10:19:25.917Z,101253.09
2022-10-22T10:25:32.731Z,101259.13
2022-10-22T10:31:32.174Z,101273.53
2022-10-22T10:34:17.135Z,101272.47
2022-10-22T10:37:02.980Z,101270.28
2022-10-22T10:39:56.005Z,101279.28
2022-10-22T10:42:59.690Z,101297.00
2022-10-22T10:45:55.512Z,101278.72
2022-10-22T10:48:48.710Z,101284.97
2022-10-22T10:51:29.975Z,101277.59
2022-10-22T10:54:11.509Z,101288.53
2022-10-22T10:56:44.024Z,101285.78
2022-10-22T11:03:12.381Z,101285.78
2022-10-22T11:05:56.412Z,101300.28
2022-10-22T11:08:30.674Z,101289.63
2022-10-22T11:13:54.946Z,101293.97
2022-10-22T11:16:33.888Z,101296.69
2022-10-22T11:19:23.189Z,101295.88
2022-10-22T11:22:05.693Z,101297.53
2022-10-22T11:24:52.023Z,101296.69
2022-10-22T11:27:29.123Z,101303.81
2022-10-22T11:30:05.394Z,101298.34
2022-10-22T11:32:33.358Z,101302.72
2022-10-22T11:35:04.478Z,101309.78
2022-10-22T11:37:35.022Z,101308.16
2022-10-22T11:40:07.953Z,101315.25
2022-10-22T11:42:43.245Z,101313.63
2022-10-22T11:45:15.760Z,101310.09
2022-10-22T11:47:57.733Z,101314.44
2022-10-22T11:50:46.295Z,101320.44
2022-10-22T11:53:12.776Z,101310.59
2022-10-22T11:56:01.905Z,101309.53
2022-10-22T11:58:28.551Z,101314.97
2022-10-22T12:01:02.179Z,101317.41
2022-10-22T12:03:28.690Z,101322.06
2022-10-22T12:06:13.223Z,101329.97
2022-10-22T12:08:44.002Z,101321.50
2022-10-22T12:11:10.512Z,101315.25
2022-10-22T12:13:58.562Z,101317.69
2022-10-22T12:16:43.900Z,101314.94
2022-10-22T12:19:17.580Z,101326.41
2022-10-22T12:21:49.038Z,101328.03
2022-10-22T12:24:19.222Z,101319.03
2022-10-22T12:26:46.984Z,101316.81
2022-10-22T12:29:16.206Z,101313.03
2022-10-22T12:31:45.524Z,101316.56
2022-10-22T12:34:21.876Z,101321.44
2022-10-22T12:36:50.528Z,101328.81
2022-10-22T12:39:20.505Z,101322.28
2022-10-22T12:41:47.666Z,101320.88
2022-10-22T12:44:16.875Z,101322.53
2022-10-22T12:46:46.412Z,101318.97
2022-10-22T12:49:21.574Z,101319.50
2022-10-22T12:51:49.433Z,101321.94
2022-10-22T12:54:27.556Z,101325.47
2022-10-22T12:56:56.263Z,101322.50
2022-10-22T13:02:29.820Z,101332.03
2022-10-22T13:05:17.437Z,101326.28
2022-10-22T13:07:50.861Z,101330.63
2022-10-22T13:10:32.300Z,101323.00
2022-10-22T13:12:59.104Z,101316.44
2022-10-22T13:15:28.702Z,101318.06
2022-10-22T13:18:16.945Z,101320.78
2022-10-22T13:21:03.016Z,101317.78
2022-10-22T13:23:31.842Z,101321.84
2022-10-22T13:26:03.247Z,101308.19
2022-10-22T13:28:32.049Z,101322.69
2022-10-22T13:31:01.433Z,101316.13
2022-10-22T13:33:38.414Z,101310.66
2022-10-22T13:36:05.761Z,101310.38
2022-10-22T13:38:32.768Z,101317.19
2022-10-22T13:40:59.428Z,101319.63
2022-10-22T13:43:26.332Z,101328.91
2022-10-22T13:45:55.622Z,101338.47
2022-10-22T13:48:24.308Z,101322.91
2022-10-22T13:50:52.287Z,101325.34
2022-10-22T13:53:22.234Z,101336.25
2022-10-22T13:55:50.233Z,101343.06
2022-10-22T13:58:19.797Z,101338.41
2022-10-22T14:00:50.939Z,101343.88
2022-10-22T14:03:21.579Z,101338.41
2022-10-22T14:05:49.229Z,101349.06
2022-10-22T14:08:19.117Z,101348.78
2022-10-22T14:10:45.655Z,101348.78
2022-10-22T14:13:13.865Z,101351.50
2022-10-22T14:15:41.464Z,101351.50
2022-10-22T14:18:12.816Z,101344.94
2022-10-22T14:20:42.315Z,101349.31
2022-10-22T14:23:18.832Z,101343.56
2022-10-22T14:25:46.163Z,101340.53
2022-10-22T14:28:13.374Z,101350.41
2022-10-22T14:30:40.696Z,101342.19
2022-10-22T14:33:21.187Z,101341.94
2022-10-22T14:35:48.035Z,101340.00
2022-10-22T14:38:14.969Z,101344.38
2022-10-22T14:40:42.945Z,101353.09
2022-10-22T14:43:31.165Z,101345.44
2022-10-22T14:45:58.443Z,101349.00
2022-10-22T14:48:24.949Z,101350.91
2022-10-22T14:50:51.697Z,101347.09
2022-10-22T14:53:18.385Z,101343.25
2022-10-22T14:55:47.130Z,101345.69
2022-10-22T14:58:14.091Z,101341.88
2022-10-22T15:00:42.265Z,101353.59
2022-10-22T15:03:09.158Z,101355.22
2022-10-22T15:05:36.420Z,101349.75
2022-10-22T15:08:02.943Z,101353.31
2022-10-22T15:10:29.415Z,101353.03
2022-10-22T15:12:55.883Z,101355.47
2022-10-22T15:15:23.236Z,101348.91
2022-10-22T15:17:51.157Z,101355.78
2022-10-22T15:20:17.710Z,101359.31
2022-10-22T15:22:45.355Z,101365.59
2022-10-22T15:25:13.067Z,101361.75
2022-10-22T15:27:40.223Z,101360.66
2022-10-22T15:30:08.425Z,101361.75
2022-10-22T15:32:34.933Z,101368.84
2022-10-22T15:35:01.656Z,101366.94
2022-10-22T15:37:28.275Z,101366.41
2022-10-22T15:39:54.825Z,101368.56
2022-10-22T15:42:21.453Z,101376.75
2022-10-22T15:44:47.908Z,101374.03
2022-10-22T15:47:14.519Z,101370.50
2022-10-22T15:49:41.857Z,101371.56
2022-10-22T15:52:09.363Z,101369.69
2022-10-22T15:54:36.303Z,101373.22
2022-10-22T15:57:05.777Z,101377.88
2022-10-22T15:59:32.295Z,101382.22
2022-10-22T16:01:58.757Z,101380.59
2022-10-22T16:04:25.254Z,101373.22
2022-10-22T16:06:53.552Z,101370.19
2022-10-22T16:09:24.988Z,101369.38
2022-10-22T16:14:21.752Z,101363.91
2022-10-22T16:16:50.989Z,101366.66
2022-10-22T16:19:19.034Z,101364.72
2022-10-22T16:21:45.598Z,101373.75
2022-10-22T16:24:12.880Z,101371.31
2022-10-22T16:26:39.361Z,101359.00
2022-10-22T16:29:08.303Z,101363.63
2022-10-22T16:31:34.858Z,101354.34
2022-10-22T16:34:01.306Z,101366.34
2022-10-22T16:36:27.751Z,101362.00
2022-10-22T16:38:54.319Z,101369.38
2022-10-22T16:41:22.967Z,101370.19
2022-10-22T16:43:51.599Z,101379.19
2022-10-22T16:46:21.044Z,101387.13
2022-10-22T16:48:52.981Z,101387.13
2022-10-22T16:51:22.738Z,101387.41
2022-10-22T16:53:51.667Z,101387.13
2022-10-22T16:56:18.980Z,101395.31
2022-10-22T16:58:48.430Z,101395.31
2022-10-22T17:01:17.962Z,101401.88
2022-10-22T17:03:45.437Z,101399.13
2022-10-22T17:06:12.462Z,101396.41
2022-10-22T17:08:40.601Z,101389.31
2022-10-22T17:11:18.830Z,101392.06
2022-10-22T17:13:47.167Z,101394.28
2022-10-22T17:16:15.775Z,101398.06
2022-10-22T17:18:43.333Z,101402.16
2022-10-22T17:21:10.865Z,101398.06
2022-10-22T17:23:37.428Z,101399.44
2022-10-22T17:26:06.634Z,101392.59
2022-10-22T17:28:36.208Z,101391.00
2022-10-22T17:31:08.555Z,101386.63
2022-10-22T17:33:36.031Z,101377.34
2022-10-22T17:36:08.983Z,101393.72
2022-10-22T17:38:35.592Z,101396.44
2022-10-22T17:41:04.289Z,101402.22
2022-10-22T17:43:35.211Z,101394.28
2022-10-22T17:46:13.360Z,101407.69
2022-10-22T17:48:40.083Z,101407.94
2022-10-22T17:51:07.815Z,101415.31
2022-10-22T17:53:34.570Z,101412.59
2022-10-22T17:56:06.939Z,101415.31
2022-10-22T17:58:33.478Z,101418.06
2022-10-22T18:01:00.031Z,101413.69
2022-10-22T18:03:27.928Z,101426.25
2022-10-22T18:05:54.968Z,101420.78
2022-10-22T18:08:24.048Z,101428.47
2022-10-22T18:10:50.682Z,101431.47
2022-10-22T18:13:17.237Z,101427.91
2022-10-22T18:15:43.685Z,101433.38
2022-10-22T18:18:10.453Z,101432.28
2022-10-22T18:20:36.907Z,101416.69
2022-10-22T18:23:03.706Z,101427.63
2022-10-22T18:25:31.755Z,101423.00
2022-10-22T18:27:58.311Z,101422.44
2022-10-22T18:30:24.889Z,101424.88
2022-10-22T18:32:51.792Z,101419.72
2022-10-22T18:35:18.330Z,101428.72
2022-10-22T18:37:45.079Z,101425.19
2022-10-22T18:40:14.644Z,101415.06
2022-10-22T18:42:41.839Z,101413.44
2022-10-22T18:45:08.971Z,101411.81
2022-10-22T18:47:39.845Z,101409.09
2022-10-22T18:50:06.760Z,101411.81
2022-10-22T18:52:33.541Z,101414.00
2022-10-22T18:55:00.134Z,101414.81
2022-10-22T18:57:26.756Z,101406.63
2022-10-22T18:59:55.801Z,101414.00
2022-10-22T19:02:25.151Z,101403.09
2022-10-22T19:04:51.614Z,101403.09
2022-10-22T19:07:18.191Z,101397.06
2022-10-22T19:09:44.711Z,101397.06
2022-10-22T19:12:14.945Z,101408.84
2022-10-22T19:14:42.784Z,101393.53
2022-10-22T19:17:09.423Z,101409.09
2022-10-22T19:19:35.962Z,101400.66
2022-10-22T19:22:02.515Z,101397.38
2022-10-22T19:24:29.281Z,101402.00
2022-10-22T19:26:55.848Z,101405.00
2022-10-22T19:29:22.676Z,101407.75
2022-10-22T19:31:51.017Z,101409.63
2022-10-22T19:34:18.247Z,101414.28
2022-10-22T19:36:44.819Z,101408.81
2022-10-22T19:39:15.322Z,101403.34
2022-10-22T19:41:42.078Z,101399.81
2022-10-22T19:44:09.737Z,101400.63
2022-10-22T19:46:36.398Z,101400.91
2022-10-22T19:49:04.305Z,101402.03
2022-10-22T19:51:33.828Z,101399.28
2022-10-22T19:54:04.167Z,101402.84
2022-10-22T19:56:32.223Z,101402.28
2022-10-22T19:58:59.432Z,101408.84
2022-10-22T20:01:27.161Z,101396.81
2022-10-22T20:03:54.387Z,101398.75
2022-10-22T20:06:22.041Z,101391.66
2022-10-22T20:08:51.020Z,101395.47
2022-10-22T20:11:23.311Z,101388.13
2022-10-22T20:13:52.293Z,101390.31
2022-10-22T20:16:23.004Z,101385.91
2022-10-22T20:18:50.009Z,101396.28
2022-10-22T20:21:19.246Z,101402.53
2022-10-22T20:23:46.705Z,101389.69
2022-10-22T20:26:13.463Z,101402.53
2022-10-22T20:28:40.114Z,101404.16
2022-10-22T20:31:12.553Z,101395.16
2022-10-22T20:33:39.372Z,101412.38
2022-10-22T20:36:09.171Z,101399.81
2022-10-22T20:41:06.960Z,101411.28
2022-10-22T20:43:33.942Z,101417.81
2022-10-22T20:46:01.121Z,101415.94
2022-10-22T20:48:31.263Z,101420.56
2022-10-22T20:50:59.132Z,101420.56
2022-10-22T20:53:25.895Z,101419.75
2022-10-22T20:55:56.747Z,101415.09
2022-10-22T20:58:25.934Z,101423.28
2022-10-22T21:00:54.684Z,101422.47
2022-10-22T21:03:21.251Z,101418.94
2022-10-22T21:05:47.751Z,101408.00
2022-10-22T21:08:17.393Z,101403.34
2022-10-22T21:10:48.889Z,101401.72
2022-10-22T21:13:16.526Z,101409.63
2022-10-22T21:15:43.040Z,101410.75
2022-10-22T21:18:09.538Z,101407.19
2022-10-22T21:20:36.366Z,101411.84
2022-10-22T21:23:02.917Z,101416.19
2022-10-22T21:25:29.361Z,101408.31
2022-10-22T21:27:55.987Z,101418.13
2022-10-22T21:30:22.559Z,101402.84
2022-10-22T21:32:49.215Z,101394.66
2022-10-22T21:35:15.856Z,101405.56
2022-10-22T21:37:42.534Z,101403.91
2022-10-22T21:40:09.759Z,101398.44
2022-10-22T21:42:36.251Z,101409.38
2022-10-22T21:45:02.807Z,101405.56
2022-10-22T21:47:29.276Z,101405.56
2022-10-22T21:49:55.800Z,101392.19
2022-10-22T21:52:22.280Z,101405.84
2022-10-22T21:54:48.801Z,101396.81
2022-10-22T21:57:15.321Z,101396.03
2022-10-22T21:59:41.771Z,101401.19
2022-10-22T22:02:08.438Z,101400.38
2022-10-22T22:04:35.021Z,101396.03
2022-10-22T22:07:01.666Z,101405.03
2022-10-22T22:09:28.218Z,101404.22
2022-10-22T22:11:54.687Z,101396.03
2022-10-22T22:14:21.145Z,101401.47
2022-10-22T22:16:47.606Z,101392.47
2022-10-22T22:19:14.193Z,101385.38
2022-10-22T22:21:41.896Z,101383.47
2022-10-22T22:24:11.469Z,101386.19
2022-10-22T22:26:38.165Z,101382.66
2022-10-22T22:29:05.664Z,101382.66
2022-10-22T22:31:34.287Z,101383.47
2022-10-22T22:34:06.236Z,101379.09
2022-10-22T22:36:35.945Z,101379.09
2022-10-22T22:39:04.064Z,101378.56
2022-10-22T22:41:30.716Z,101381.00
2022-10-22T22:43:57.188Z,101384.53
2022-10-22T22:46:23.641Z,101383.72
2022-10-22T22:48:50.329Z,101382.13
2022-10-22T22:51:17.536Z,101385.66
2022-10-22T22:53:44.016Z,101376.66
2022-10-22T22:56:18.201Z,101376.66
2022-10-22T22:58:45.285Z,101367.66
2022-10-22T23:01:18.461Z,101358.66
2022-10-22T23:03:47.611Z,101350.44
2022-10-22T23:06:15.425Z,101352.38
2022-10-22T23:08:42.513Z,101341.44
2022-10-22T23:11:13.551Z,101349.63
2022-10-22T23:13:41.414Z,101346.09
2022-10-22T23:16:10.258Z,101353.44
2022-10-22T23:18:36.770Z,101344.44
2022-10-22T23:21:05.309Z,101334.34
2022-10-22T23:23:33.225Z,101337.06
2022-10-22T23:26:00.532Z,101339.78
2022-10-22T23:28:27.074Z,101332.72
2022-10-22T23:30:53.588Z,101328.06
2022-10-22T23:33:20.552Z,101328.06
2022-10-22T23:35:47.072Z,101317.13
2022-10-22T23:38:13.767Z,101320.16
2022-10-22T23:40:40.386Z,101324.81
2022-10-22T23:43:06.852Z,101322.91
2022-10-22T23:45:34.399Z,101330.28
2022-10-22T23:48:00.823Z,101320.97
2022-10-22T23:50:27.329Z,101315.81
2022-10-22T23:52:53.785Z,101310.34
2022-10-22T23:55:20.401Z,101320.44
2022-10-22T23:57:47.059Z,101319.63
